createdAt,value
2022-12-18T00:01:18.616Z,97397.66
2022-12-18T00:03:47.036Z,97394.25
2022-12-18T00:06:15.498Z,97387.78
2022-12-18T00:08:43.201Z,97398.16
2022-12-18T00:11:13.811Z,97407.25
2022-12-18T00:13:42.021Z,97395.25
2022-12-18T00:16:12.360Z,97393.38
2022-12-18T00:18:42.126Z,97400.72
2022-12-18T00:21:12.827Z,97400.09
2022-12-18T00:23:41.882Z,97413.63
2022-12-18T00:26:13.072Z,97411.78
2022-12-18T00:28:40.744Z,97406.75
2022-12-18T00:31:12.238Z,97418.50
2022-12-18T00:33:41.559Z,97412.59
2022-12-18T00:36:12.460Z,97427.94
2022-12-18T00:38:40.619Z,97430.16
2022-12-18T00:41:09.525Z,97442.00
2022-12-18T00:43:37.037Z,97442.94
2022-12-18T00:46:08.194Z,97448.00
2022-12-18T00:48:36.018Z,97454.19
2022-12-18T00:51:04.871Z,97447.25
2022-12-18T00:53:32.407Z,97439.09
2022-12-18T00:55:59.963Z,97438.44
2022-12-18T00:58:27.476Z,97421.53
2022-12-18T01:00:56.506Z,97428.53
2022-12-18T01:03:24.233Z,97410.78
2022-12-18T01:05:51.791Z,97418.81
2022-12-18T01:08:20.648Z,97413.00
2022-12-18T01:10:48.234Z,97421.09
2022-12-18T01:13:15.799Z,97424.44
2022-12-18T01:15:50.189Z,97424.88
2022-12-18T01:18:17.708Z,97439.97
2022-12-18T01:20:45.275Z,97435.84
2022-12-18T01:23:12.768Z,97435.44
2022-12-18T01:25:41.614Z,97439.25
2022-12-18T01:28:09.136Z,97433.38
2022-12-18T01:30:36.675Z,97434.38
2022-12-18T01:33:06.056Z,97443.03
2022-12-18T01:35:33.594Z,97434.19
2022-12-18T01:38:01.082Z,97445.97
2022-12-18T01:40:28.575Z,97447.72
2022-12-18T01:42:57.750Z,97450.84
2022-12-18T01:45:30.110Z,97449.59
2022-12-18T01:48:00.252Z,97452.50
2022-12-18T01:50:32.389Z,97466.75
2022-12-18T01:53:04.042Z,97459.97
2022-12-18T01:55:37.092Z,97463.88
2022-12-18T01:58:06.806Z,97460.75
2022-12-18T02:00:34.374Z,97464.75
2022-12-18T02:03:02.050Z,97461.56
2022-12-18T02:05:42.088Z,97469.88
2022-12-18T02:08:19.026Z,97471.03
2022-12-18T02:10:53.747Z,97471.28
2022-12-18T02:13:31.955Z,97480.63
2022-12-18T02:16:08.888Z,97475.06
2022-12-18T02:18:40.336Z,97480.97
2022-12-18T02:21:20.043Z,97471.53
2022-12-18T02:23:58.147Z,97472.19
2022-12-18T02:26:32.045Z,97469.16
2022-12-18T02:29:06.930Z,97465.81
2022-12-18T02:31:41.119Z,97455.84
2022-12-18T02:34:11.279Z,97464.31
2022-12-18T02:36:42.744Z,97466.72
2022-12-18T02:39:13.658Z,97471.97
2022-12-18T02:41:43.230Z,97471.47
2022-12-18T02:44:13.171Z,97470.28
2022-12-18T02:46:44.216Z,97471.22
2022-12-18T02:49:28.104Z,97470.56
2022-12-18T02:52:01.287Z,97466.84
2022-12-18T02:54:40.133Z,97465.78
2022-12-18T02:57:17.609Z,97465.16
2022-12-18T02:59:59.329Z,97460.53
2022-12-18T03:02:36.007Z,97453.31
2022-12-18T03:05:10.010Z,97471.16
2022-12-18T03:07:41.261Z,97470.16
2022-12-18T03:10:13.647Z,97467.09
2022-12-18T03:12:48.096Z,97465.34
2022-12-18T03:15:19.976Z,97463.56
2022-12-18T03:17:53.243Z,97457.16
2022-12-18T03:20:23.654Z,97464.94
2022-12-18T03:22:55.192Z,97464.72
2022-12-18T03:25:25.669Z,97462.19
2022-12-18T03:27:58.696Z,97459.47
2022-12-18T03:30:28.393Z,97453.06
2022-12-18T03:33:03.893Z,97448.34
2022-12-18T03:35:35.411Z,97457.75
2022-12-18T03:38:03.159Z,97453.84
2022-12-18T03:40:41.616Z,97466.91
2022-12-18T03:43:18.665Z,97454.56
2022-12-18T03:45:54.053Z,97457.75
2022-12-18T03:48:28.487Z,97452.22
2022-12-18T03:50:59.828Z,97459.66
2022-12-18T03:53:37.073Z,97459.13
2022-12-18T03:56:06.806Z,97461.50
2022-12-18T03:58:39.190Z,97473.78
2022-12-18T04:01:11.960Z,97477.31
2022-12-18T04:03:41.172Z,97483.06
2022-12-18T04:06:09.738Z,97482.78
2022-12-18T04:08:37.680Z,97485.28
2022-12-18T04:11:05.555Z,97487.28
2022-12-18T04:13:38.741Z,97485.59
2022-12-18T04:16:07.277Z,97487.09
2022-12-18T04:18:34.836Z,97486.41
2022-12-18T04:21:02.406Z,97493.97
2022-12-18T04:23:30.207Z,97488.91
2022-12-18T04:25:57.714Z,97492.69
2022-12-18T04:28:25.248Z,97497.16
2022-12-18T04:30:54.196Z,97498.94
2022-12-18T04:33:21.768Z,97497.09
2022-12-18T04:35:49.330Z,97503.09
2022-12-18T04:38:16.870Z,97504.06
2022-12-18T04:40:45.160Z,97501.16
2022-12-18T04:43:12.766Z,97497.72
2022-12-18T04:45:41.010Z,97503.16
2022-12-18T04:48:09.894Z,97503.22
2022-12-18T04:50:38.130Z,97508.47
2022-12-18T04:53:05.690Z,97500.59
2022-12-18T04:55:33.216Z,97498.59
2022-12-18T04:58:00.740Z,97503.16
2022-12-18T05:00:28.712Z,97504.63
2022-12-18T05:02:56.456Z,97508.41
2022-12-18T05:05:25.446Z,97515.03
2022-12-18T05:07:52.983Z,97515.91
2022-12-18T05:10:20.539Z,97513.44
2022-12-18T05:13:04.766Z,97517.56
2022-12-18T05:15:33.037Z,97509.81
2022-12-18T05:18:01.910Z,97518.00
2022-12-18T05:20:31.294Z,97498.63
2022-12-18T05:22:58.844Z,97514.38
2022-12-18T05:25:26.719Z,97518.34
2022-12-18T05:27:54.247Z,97519.53
2022-12-18T05:30:21.815Z,97522.28
2022-12-18T05:32:49.348Z,97525.59
2022-12-18T05:35:16.943Z,97516.50
2022-12-18T05:37:45.794Z,97523.69
2022-12-18T05:40:14.008Z,97537.59
2022-12-18T05:42:41.522Z,97535.41
2022-12-18T05:45:09.734Z,97533.66
2022-12-18T05:47:37.284Z,97531.41
2022-12-18T05:50:07.847Z,97535.88
2022-12-18T05:52:35.403Z,97533.91
2022-12-18T05:55:05.316Z,97542.75
2022-12-18T05:57:32.823Z,97548.16
2022-12-18T06:00:00.370Z,97547.19
2022-12-18T06:02:28.015Z,97551.78
2022-12-18T06:04:55.641Z,97552.13
2022-12-18T06:07:23.163Z,97547.59
2022-12-18T06:09:50.729Z,97552.59
2022-12-18T06:12:19.584Z,97552.38
2022-12-18T06:14:47.114Z,97554.97
2022-12-18T06:17:14.676Z,97546.66
2022-12-18T06:19:42.488Z,97547.91
2022-12-18T06:22:09.998Z,97544.72
2022-12-18T06:24:37.494Z,97542.81
2022-12-18T06:27:05.209Z,97553.00
2022-12-18T06:29:34.084Z,97554.56
2022-12-18T06:32:01.608Z,97563.28
2022-12-18T06:34:29.196Z,97559.06
2022-12-18T06:36:56.724Z,97560.44
2022-12-18T06:39:24.296Z,97563.63
2022-12-18T06:41:51.902Z,97561.44
2022-12-18T06:44:19.550Z,97562.25
2022-12-18T06:46:48.382Z,97567.75
2022-12-18T06:49:16.886Z,97564.84
2022-12-18T06:51:44.647Z,97582.84
2022-12-18T06:54:13.030Z,97589.25
2022-12-18T06:56:40.683Z,97587.84
2022-12-18T06:59:08.252Z,97592.06
2022-12-18T07:01:35.877Z,97591.25
2022-12-18T07:04:04.900Z,97593.91
2022-12-18T07:06:32.443Z,97594.41
2022-12-18T07:08:59.964Z,97586.78
2022-12-18T07:11:27.478Z,97593.97
2022-12-18T07:13:55.307Z,97607.56
2022-12-18T07:16:25.682Z,97599.59
2022-12-18T07:18:53.715Z,97599.94
2022-12-18T07:21:23.670Z,97597.75
2022-12-18T07:23:51.448Z,97594.88
2022-12-18T07:26:21.512Z,97583.91
2022-12-18T07:28:49.580Z,97583.69
2022-12-18T07:31:19.237Z,97582.47
2022-12-18T07:33:47.717Z,97582.97
2022-12-18T07:36:15.596Z,97572.59
2022-12-18T07:38:44.873Z,97579.16
2022-12-18T07:41:14.463Z,97577.88
2022-12-18T07:43:43.666Z,97587.84
2022-12-18T07:46:13.371Z,97585.56
2022-12-18T07:48:41.116Z,97585.59
2022-12-18T07:51:09.311Z,97585.88
2022-12-18T07:53:38.317Z,97600.84
2022-12-18T07:56:28.260Z,97600.00
2022-12-18T07:58:56.963Z,97600.19
2022-12-18T08:01:24.582Z,97593.84
2022-12-18T08:03:52.665Z,97597.66
2022-12-18T08:06:22.517Z,97601.19
2022-12-18T08:08:53.144Z,97602.19
2022-12-18T08:11:22.343Z,97606.78
2022-12-18T08:13:49.879Z,97606.47
2022-12-18T08:16:18.038Z,97618.19
2022-12-18T08:18:45.613Z,97617.53
2022-12-18T08:21:15.955Z,97616.34
2022-12-18T08:23:44.236Z,97632.38
2022-12-18T08:26:12.525Z,97641.59
2022-12-18T08:28:42.209Z,97638.31
2022-12-18T08:31:10.236Z,97626.25
2022-12-18T08:33:40.232Z,97636.63
2022-12-18T08:36:10.970Z,97632.16
2022-12-18T08:38:39.051Z,97635.84
2022-12-18T08:41:08.658Z,97638.09
2022-12-18T08:43:53.744Z,97640.88
2022-12-18T08:46:24.388Z,97631.50
2022-12-18T08:48:53.406Z,97639.56
2022-12-18T08:51:21.486Z,97639.34
2022-12-18T08:53:49.525Z,97646.00
2022-12-18T08:56:17.140Z,97643.16
2022-12-18T08:58:44.751Z,97645.91
2022-12-18T09:01:14.672Z,97646.31
2022-12-18T09:03:44.219Z,97645.84
2022-12-18T09:06:15.539Z,97641.78
2022-12-18T09:08:43.466Z,97638.59
2022-12-18T09:11:15.166Z,97639.19
2022-12-18T09:13:43.007Z,97640.06
2022-12-18T09:16:10.737Z,97649.00
2022-12-18T09:18:38.867Z,97647.72
2022-12-18T09:21:13.162Z,97650.63
2022-12-18T09:23:41.120Z,97647.81
2022-12-18T09:26:09.025Z,97649.34
2022-12-18T09:28:36.621Z,97647.94
2022-12-18T09:31:08.589Z,97641.91
2022-12-18T09:33:36.639Z,97645.50
2022-12-18T09:36:05.755Z,97642.97
2022-12-18T09:38:35.672Z,97635.16
2022-12-18T09:41:08.570Z,97626.81
2022-12-18T09:43:43.136Z,97626.84
2022-12-18T09:46:16.569Z,97628.56
2022-12-18T09:48:49.583Z,97631.94
2022-12-18T09:51:21.916Z,97623.66
2022-12-18T09:53:57.513Z,97625.41
2022-12-18T09:56:36.902Z,97626.66
2022-12-18T09:59:06.136Z,97629.94
2022-12-18T10:01:41.719Z,97617.72
2022-12-18T10:04:11.625Z,97625.34
2022-12-18T10:06:46.366Z,97613.44
2022-12-18T10:09:26.103Z,97607.66
2022-12-18T10:12:01.169Z,97613.41
2022-12-18T10:14:36.214Z,97618.63
2022-12-18T10:17:15.649Z,97611.78
2022-12-18T10:19:51.200Z,97618.03
2022-12-18T10:22:29.206Z,97620.47
2022-12-18T10:25:04.972Z,97615.59
2022-12-18T10:27:32.824Z,97612.94
2022-12-18T10:30:03.355Z,97606.94
2022-12-18T10:32:32.433Z,97608.06
2022-12-18T10:35:01.236Z,97600.22
2022-12-18T10:37:31.481Z,97601.94
2022-12-18T10:40:19.923Z,97600.63
2022-12-18T10:43:05.861Z,97591.94
2022-12-18T10:45:33.418Z,97588.44
2022-12-18T10:48:01.156Z,97580.56
2022-12-18T10:51:01.834Z,97570.19
2022-12-18T10:53:23.430Z,97588.22
2022-12-18T10:55:55.551Z,97586.13
2022-12-18T10:58:26.936Z,97584.94
2022-12-18T11:01:10.676Z,97592.69
2022-12-18T11:03:39.880Z,97583.44
2022-12-18T11:06:10.354Z,97587.38
2022-12-18T11:08:39.420Z,97590.56
2022-12-18T11:11:22.218Z,97587.63
2022-12-18T11:14:02.604Z,97585.56
2022-12-18T11:16:32.596Z,97595.34
2022-12-18T11:19:17.066Z,97596.47
2022-12-18T11:21:44.851Z,97594.50
2022-12-18T11:24:23.192Z,97598.44
2022-12-18T11:26:57.827Z,97596.16
2022-12-18T11:29:33.463Z,97596.41
2022-12-18T11:32:36.822Z,97585.94
2022-12-18T11:35:13.969Z,97588.63
2022-12-18T11:37:44.538Z,97598.44
2022-12-18T11:40:18.238Z,97594.75
2022-12-18T11:42:54.000Z,97591.59
2022-12-18T11:45:32.643Z,97593.81
2022-12-18T11:48:06.619Z,97590.69
2022-12-18T11:50:45.991Z,97584.25
2022-12-18T11:53:14.268Z,97591.50
2022-12-18T11:55:48.455Z,97590.63
2022-12-18T11:58:31.517Z,97597.16
2022-12-18T12:01:09.847Z,97601.72
2022-12-18T12:04:10.660Z,97596.75
2022-12-18T12:06:48.468Z,97583.97
2022-12-18T12:09:24.833Z,97568.97
2022-12-18T12:12:04.943Z,97564.72
2022-12-18T12:14:55.647Z,97561.63
2022-12-18T12:17:32.857Z,97549.53
2022-12-18T12:20:09.441Z,97555.53
2022-12-18T12:22:44.056Z,97548.28
2022-12-18T12:25:29.002Z,97546.16
2022-12-18T12:28:13.010Z,97540.75
2022-12-18T12:30:52.886Z,97538.09
2022-12-18T12:33:36.158Z,97550.25
2022-12-18T12:36:12.315Z,97547.81
2022-12-18T12:38:51.550Z,97542.91
2022-12-18T12:41:40.528Z,97548.22
2022-12-18T12:44:14.831Z,97541.00
2022-12-18T12:46:45.364Z,97544.00
2022-12-18T12:49:19.315Z,97540.38
2022-12-18T12:51:52.020Z,97549.34
2022-12-18T12:54:23.266Z,97540.00
2022-12-18T12:56:59.211Z,97538.97
2022-12-18T12:59:33.464Z,97538.00
2022-12-18T13:02:15.260Z,97533.59
2022-12-18T13:04:50.073Z,97523.94
2022-12-18T13:07:23.704Z,97536.34
2022-12-18T13:10:17.234Z,97536.34
2022-12-18T13:12:56.556Z,97548.34
2022-12-18T13:15:26.511Z,97545.38
2022-12-18T13:18:16.158Z,97545.72
2022-12-18T13:20:52.245Z,97546.22
2022-12-18T13:23:29.478Z,97543.97
2022-12-18T13:25:58.111Z,97537.16
2022-12-18T13:28:53.711Z,97541.50
2022-12-18T13:32:11.316Z,97546.53
2022-12-18T13:34:42.580Z,97548.28
2022-12-18T13:37:41.949Z,97542.66
2022-12-18T13:40:56.958Z,97535.66
2022-12-18T13:43:28.608Z,97527.38
2022-12-18T13:46:19.887Z,97531.56
2022-12-18T13:48:54.030Z,97530.22
2022-12-18T13:51:24.056Z,97524.22
2022-12-18T13:53:53.947Z,97523.06
2022-12-18T13:56:26.404Z,97527.41
2022-12-18T13:59:18.812Z,97523.91
2022-12-18T14:01:53.528Z,97534.13
2022-12-18T14:04:25.099Z,97525.53
2022-12-18T14:06:57.345Z,97522.81
2022-12-18T14:09:28.581Z,97531.75
2022-12-18T14:12:19.244Z,97535.75
2022-12-18T14:14:49.066Z,97539.66
2022-12-18T14:17:19.684Z,97542.47
2022-12-18T14:19:49.585Z,97527.91
2022-12-18T14:22:20.558Z,97522.50
2022-12-18T14:24:49.384Z,97528.72
2022-12-18T14:27:25.735Z,97520.63
2022-12-18T14:29:53.830Z,97521.59
2022-12-18T14:32:23.168Z,97523.56
2022-12-18T14:34:52.384Z,97524.41
2022-12-18T14:37:24.804Z,97519.69
2022-12-18T14:39:58.874Z,97521.97
2022-12-18T14:42:28.971Z,97516.72
2022-12-18T14:45:41.092Z,97519.50
2022-12-18T14:48:14.567Z,97523.72
2022-12-18T14:50:44.230Z,97519.47
2022-12-18T14:53:25.121Z,97525.50
2022-12-18T14:55:52.748Z,97537.22
2022-12-18T14:58:20.655Z,97534.22
2022-12-18T15:00:48.463Z,97538.00
2022-12-18T15:03:20.784Z,97535.25
2022-12-18T15:05:48.813Z,97543.06
2022-12-18T15:08:32.131Z,97541.66
2022-12-18T15:11:00.500Z,97536.97
2022-12-18T15:13:28.965Z,97536.03
2022-12-18T15:15:58.013Z,97534.00
2022-12-18T15:18:33.954Z,97540.31
2022-12-18T15:21:09.898Z,97536.00
2022-12-18T15:23:48.107Z,97540.94
2022-12-18T15:26:17.886Z,97539.09
2022-12-18T15:28:48.017Z,97536.47
2022-12-18T15:31:30.495Z,97535.88
2022-12-18T15:34:14.376Z,97538.41
2022-12-18T15:36:42.243Z,97534.41
2022-12-18T15:39:14.157Z,97551.09
2022-12-18T15:42:01.738Z,97547.75
2022-12-18T15:44:28.469Z,97549.34
2022-12-18T15:46:55.975Z,97541.69
2022-12-18T15:49:23.735Z,97536.84
2022-12-18T15:51:54.715Z,97543.69
2022-12-18T15:54:44.425Z,97546.19
2022-12-18T15:57:23.803Z,97546.38
2022-12-18T15:59:51.580Z,97553.47
2022-12-18T16:02:20.689Z,97555.31
2022-12-18T16:04:48.369Z,97549.78
2022-12-18T16:07:19.322Z,97557.41
2022-12-18T16:09:55.196Z,97551.53
2022-12-18T16:12:26.197Z,97552.88
2022-12-18T16:14:53.722Z,97544.88
2022-12-18T16:17:21.253Z,97541.41
2022-12-18T16:19:48.926Z,97542.19
2022-12-18T16:22:22.867Z,97540.66
2022-12-18T16:24:51.370Z,97536.00
2022-12-18T16:27:20.891Z,97531.78
2022-12-18T16:29:48.572Z,97534.69
2022-12-18T16:32:18.105Z,97532.56
2022-12-18T16:34:46.857Z,97537.03
2022-12-18T16:37:15.978Z,97534.50
2022-12-18T16:39:43.940Z,97534.06
2022-12-18T16:42:15.494Z,97530.63
2022-12-18T16:44:45.454Z,97527.69
2022-12-18T16:47:14.943Z,97534.88
2022-12-18T16:49:43.062Z,97528.50
2022-12-18T16:52:10.601Z,97528.38
2022-12-18T16:54:38.114Z,97521.78
2022-12-18T16:57:06.078Z,97525.19
2022-12-18T16:59:33.853Z,97527.16
2022-12-18T17:02:14.294Z,97519.34
2022-12-18T17:04:41.990Z,97525.94
2022-12-18T17:07:09.877Z,97526.06
2022-12-18T17:09:41.789Z,97522.13
2022-12-18T17:12:09.568Z,97520.50
2022-12-18T17:14:38.049Z,97516.19
2022-12-18T17:17:20.999Z,97515.19
2022-12-18T17:19:49.693Z,97522.97
2022-12-18T17:22:17.241Z,97521.94
2022-12-18T17:24:44.759Z,97516.75
2022-12-18T17:27:12.297Z,97520.03
2022-12-18T17:29:45.375Z,97531.19
2022-12-18T17:32:16.046Z,97531.06
2022-12-18T17:34:43.660Z,97520.41
2022-12-18T17:37:11.195Z,97528.91
2022-12-18T17:39:39.102Z,97513.25
2022-12-18T17:42:06.775Z,97514.56
2022-12-18T17:44:35.494Z,97511.38
2022-12-18T17:47:03.123Z,97510.09
2022-12-18T17:49:32.190Z,97509.22
2022-12-18T17:51:59.691Z,97509.16
2022-12-18T17:54:27.245Z,97508.50
2022-12-18T17:56:54.777Z,97504.66
2022-12-18T17:59:22.581Z,97505.91
2022-12-18T18:01:50.322Z,97504.63
2022-12-18T18:04:18.035Z,97511.38
2022-12-18T18:06:46.955Z,97497.00
2022-12-18T18:09:16.484Z,97497.75
2022-12-18T18:12:02.368Z,97489.03
2022-12-18T18:14:30.099Z,97486.44
2022-12-18T18:17:04.027Z,97490.53
2022-12-18T18:19:34.061Z,97506.38
2022-12-18T18:22:03.244Z,97497.19
2022-12-18T18:24:31.771Z,97502.19
2022-12-18T18:27:00.413Z,97494.22
2022-12-18T18:29:30.213Z,97498.13
2022-12-18T18:31:58.083Z,97506.38
2022-12-18T18:34:27.986Z,97503.47
2022-12-18T18:36:55.858Z,97495.81
2022-12-18T18:39:24.807Z,97495.22
2022-12-18T18:41:52.633Z,97498.75
2022-12-18T18:44:24.880Z,97509.81
2022-12-18T18:46:55.008Z,97517.25
2022-12-18T18:49:24.079Z,97506.38
2022-12-18T18:51:51.919Z,97514.00
2022-12-18T18:54:19.594Z,97513.44
2022-12-18T18:57:19.511Z,97503.81
2022-12-18T18:59:36.961Z,97507.41
2022-12-18T19:02:05.185Z,97494.09
2022-12-18T19:04:33.335Z,97501.22
2022-12-18T19:07:00.923Z,97492.56
2022-12-18T19:09:30.325Z,97490.91
2022-12-18T19:12:22.723Z,97487.69
2022-12-18T19:14:50.336Z,97481.56
2022-12-18T19:17:17.908Z,97484.56
2022-12-18T19:19:45.852Z,97471.22
2022-12-18T19:22:14.045Z,97482.84
2022-12-18T19:24:41.668Z,97476.72
2022-12-18T19:27:10.935Z,97471.34
2022-12-18T19:29:38.454Z,97477.00
2022-12-18T19:32:06.371Z,97481.41
2022-12-18T19:34:34.396Z,97485.41
2022-12-18T19:37:02.024Z,97486.16
2022-12-18T19:39:29.767Z,97476.91
2022-12-18T19:41:57.678Z,97477.72
2022-12-18T19:44:26.769Z,97477.31
2022-12-18T19:46:54.303Z,97478.63
2022-12-18T19:49:21.853Z,97473.13
2022-12-18T19:51:50.268Z,97471.31
2022-12-18T19:54:18.361Z,97467.19
2022-12-18T19:56:46.273Z,97463.13
2022-12-18T19:59:14.380Z,97480.38
2022-12-18T20:01:43.417Z,97479.31
2022-12-18T20:04:11.143Z,97475.00
2022-12-18T20:06:47.870Z,97474.47
2022-12-18T20:09:15.898Z,97472.13
2022-12-18T20:11:44.180Z,97474.47
2022-12-18T20:14:12.641Z,97471.09
2022-12-18T20:16:40.650Z,97475.84
2022-12-18T20:19:11.666Z,97479.22
2022-12-18T20:21:40.239Z,97485.22
2022-12-18T20:24:09.216Z,97476.41
2022-12-18T20:26:36.864Z,97481.34
2022-12-18T20:29:04.561Z,97482.66
2022-12-18T20:31:32.359Z,97476.94
2022-12-18T20:34:01.587Z,97471.69
2022-12-18T20:36:33.075Z,97482.47
2022-12-18T20:39:05.223Z,97482.44
2022-12-18T20:41:38.549Z,97483.38
2022-12-18T20:44:10.295Z,97475.22
2022-12-18T20:46:50.119Z,97474.31
2022-12-18T20:49:17.635Z,97472.00
2022-12-18T20:51:46.510Z,97473.03
2022-12-18T20:54:14.049Z,97468.78
2022-12-18T20:56:41.579Z,97470.81
2022-12-18T20:59:11.283Z,97470.16
2022-12-18T21:01:39.742Z,97475.00
2022-12-18T21:04:11.523Z,97475.25
2022-12-18T21:06:39.237Z,97475.75
2022-12-18T21:09:08.112Z,97472.53
2022-12-18T21:11:53.019Z,97467.03
2022-12-18T21:14:22.290Z,97471.88
2022-12-18T21:16:50.567Z,97484.66
2022-12-18T21:19:20.321Z,97476.59
2022-12-18T21:21:48.277Z,97470.50
2022-12-18T21:24:17.610Z,97467.16
2022-12-18T21:26:46.395Z,97468.38
2022-12-18T21:29:16.404Z,97461.81
2022-12-18T21:31:45.318Z,97468.13
2022-12-18T21:34:17.150Z,97467.53
2022-12-18T21:36:44.668Z,97457.88
2022-12-18T21:39:13.819Z,97450.84
2022-12-18T21:42:00.973Z,97446.03
2022-12-18T21:44:28.746Z,97444.00
2022-12-18T21:47:02.414Z,97427.50
2022-12-18T21:49:33.814Z,97424.06
2022-12-18T21:52:02.190Z,97425.66
2022-12-18T21:54:30.617Z,97441.44
2022-12-18T21:57:01.984Z,97441.66
2022-12-18T21:59:31.089Z,97438.97
2022-12-18T22:02:00.305Z,97444.66
2022-12-18T22:04:28.576Z,97438.81
2022-12-18T22:06:57.384Z,97442.22
2022-12-18T22:09:26.649Z,97449.06
2022-12-18T22:11:54.476Z,97439.16
2022-12-18T22:14:24.439Z,97425.38
2022-12-18T22:16:53.353Z,97431.56
2022-12-18T22:19:20.970Z,97418.59
2022-12-18T22:21:50.079Z,97423.91
2022-12-18T22:24:19.617Z,97417.91
2022-12-18T22:26:47.904Z,97416.31
2022-12-18T22:29:35.843Z,97402.81
2022-12-18T22:32:05.469Z,97406.59
2022-12-18T22:34:36.432Z,97411.22
2022-12-18T22:37:04.491Z,97393.56
2022-12-18T22:39:32.205Z,97396.88
2022-12-18T22:41:59.988Z,97401.06
2022-12-18T22:44:28.153Z,97392.56
2022-12-18T22:47:05.646Z,97393.03
2022-12-18T22:49:36.520Z,97372.59
2022-12-18T22:52:04.392Z,97383.31
2022-12-18T22:54:31.924Z,97374.94
2022-12-18T22:56:59.491Z,97375.50
2022-12-18T22:59:27.012Z,97374.22
2022-12-18T23:01:59.004Z,97368.28
2022-12-18T23:04:28.564Z,97359.00
2022-12-18T23:07:05.353Z,97362.81
2022-12-18T23:09:33.452Z,97362.28
2022-12-18T23:12:01.787Z,97356.78
2022-12-18T23:14:29.989Z,97369.28
2022-12-18T23:16:57.523Z,97373.31
2022-12-18T23:19:25.550Z,97375.53
2022-12-18T23:21:54.773Z,97363.75
2022-12-18T23:24:26.101Z,97377.84
2022-12-18T23:26:53.675Z,97395.25
2022-12-18T23:29:21.406Z,97398.63
2022-12-18T23:31:49.008Z,97399.06
2022-12-18T23:34:17.797Z,97379.09
2022-12-18T23:36:46.960Z,97388.03
2022-12-18T23:39:24.061Z,97384.06
2022-12-18T23:41:59.502Z,97382.97
2022-12-18T23:44:27.192Z,97375.19
2022-12-18T23:46:55.613Z,97370.53
2022-12-18T23:49:23.787Z,97358.47
2022-12-18T23:51:51.335Z,97354.56
2022-12-18T23:54:19.536Z,97350.38
2022-12-18T23:57:02.415Z,97335.69
2022-12-18T23:59:29.941Z,97334.66
